createdAt,value
2023-10-10T00:00:13.755Z,95.70
2023-10-10T00:00:44.097Z,95.70
2023-10-10T00:01:05.965Z,95.70
2023-10-10T00:01:36.752Z,95.50
2023-10-10T00:02:07.404Z,95.40
2023-10-10T00:02:38.137Z,95.50
2023-10-10T00:03:08.937Z,95.40
2023-10-10T00:03:39.568Z,95.50
2023-10-10T00:04:10.192Z,95.40
2023-10-10T00:04:40.814Z,95.30
2023-10-10T00:05:11.443Z,95.20
2023-10-10T00:05:42.038Z,95.30
2023-10-10T00:06:12.665Z,95.30
2023-10-10T00:06:43.339Z,95.30
2023-10-10T00:07:22.554Z,95.30
2023-10-10T00:07:51.960Z,95.14
2023-10-10T00:08:15.209Z,95.14
2023-10-10T00:08:45.883Z,95.24
2023-10-10T00:09:18.867Z,95.34
2023-10-10T00:09:47.257Z,95.30
2023-10-10T00:10:17.878Z,95.24
2023-10-10T00:10:48.522Z,95.04
2023-10-10T00:11:19.155Z,94.93
2023-10-10T00:11:49.778Z,94.93
2023-10-10T00:12:20.386Z,95.04
2023-10-10T00:12:51.064Z,95.04
2023-10-10T00:13:30.651Z,94.93
2023-10-10T00:13:53.648Z,94.93
2023-10-10T00:14:22.962Z,94.93
2023-10-10T00:14:53.668Z,95.04
2023-10-10T00:15:32.300Z,95.04
2023-10-10T00:15:54.965Z,95.04
2023-10-10T00:16:25.748Z,95.04
2023-10-10T00:17:06.125Z,95.04
2023-10-10T00:17:35.080Z,95.14
2023-10-10T00:18:06.735Z,95.04
2023-10-10T00:18:39.177Z,94.93
2023-10-10T00:19:00.682Z,94.84
2023-10-10T00:19:38.491Z,94.93
2023-10-10T00:20:08.309Z,94.93
2023-10-10T00:20:31.093Z,95.04
2023-10-10T00:21:11.609Z,95.04
2023-10-10T00:21:32.674Z,95.04
2023-10-10T00:22:03.439Z,95.04
2023-10-10T00:23:53.861Z,95.08
2023-10-10T00:24:24.749Z,95.08
2023-10-10T00:26:21.365Z,95.39
2023-10-10T00:27:00.738Z,95.08
2023-10-10T00:27:31.489Z,95.18
2023-10-10T00:28:02.263Z,95.18
2023-10-10T00:28:34.730Z,95.18
2023-10-10T00:29:04.576Z,95.18
2023-10-10T00:29:25.110Z,95.18
2023-10-10T00:30:04.802Z,95.18
2023-10-10T00:30:26.699Z,95.18
2023-10-10T00:30:57.342Z,95.08
2023-10-10T00:31:28.321Z,95.08
2023-10-10T00:31:58.482Z,95.18
2023-10-10T00:32:30.168Z,95.18
2023-10-10T00:32:59.392Z,95.29
2023-10-10T00:33:29.973Z,95.29
2023-10-10T00:34:00.627Z,95.39
2023-10-10T00:34:31.216Z,95.39
2023-10-10T00:35:01.871Z,95.29
2023-10-10T00:35:32.563Z,95.18
2023-10-10T00:36:03.217Z,95.18
2023-10-10T00:36:33.803Z,95.18
2023-10-10T00:37:04.413Z,95.18
2023-10-10T00:37:35.034Z,95.18
2023-10-10T00:38:05.645Z,95.18
2023-10-10T00:38:36.262Z,95.18
2023-10-10T00:39:06.873Z,95.18
2023-10-10T00:39:37.545Z,95.18
2023-10-10T00:40:08.182Z,95.39
2023-10-10T00:40:38.755Z,95.29
2023-10-10T00:41:09.415Z,95.39
2023-10-10T00:41:40.006Z,95.39
2023-10-10T00:42:10.614Z,95.29
2023-10-10T00:42:41.240Z,95.18
2023-10-10T00:43:11.852Z,95.18
2023-10-10T00:43:42.476Z,95.29
2023-10-10T00:44:13.194Z,95.29
2023-10-10T00:44:43.800Z,95.18
2023-10-10T00:45:14.412Z,95.18
2023-10-10T00:45:45.027Z,95.08
2023-10-10T00:46:15.678Z,94.98
2023-10-10T00:46:46.328Z,95.08
2023-10-10T00:47:16.974Z,95.18
2023-10-10T00:47:47.706Z,95.13
2023-10-10T00:48:18.476Z,95.23
2023-10-10T00:48:49.146Z,95.43
2023-10-10T00:49:19.757Z,95.43
2023-10-10T00:49:50.413Z,95.43
2023-10-10T00:50:21.068Z,95.33
2023-10-10T00:50:51.663Z,95.33
2023-10-10T00:51:22.360Z,95.33
2023-10-10T00:51:53.033Z,95.43
2023-10-10T00:52:23.651Z,95.43
2023-10-10T00:53:01.989Z,95.43
2023-10-10T00:53:25.346Z,95.43
2023-10-10T00:53:56.115Z,95.53
2023-10-10T00:54:26.801Z,95.43
2023-10-10T00:54:57.425Z,95.43
2023-10-10T00:55:28.127Z,95.43
2023-10-10T00:55:58.745Z,95.43
2023-10-10T00:56:29.367Z,95.43
2023-10-10T00:56:59.975Z,95.53
2023-10-10T00:57:30.591Z,95.53
2023-10-10T00:58:01.230Z,95.53
2023-10-10T00:58:31.828Z,95.43
2023-10-10T00:59:02.516Z,95.43
2023-10-10T00:59:33.140Z,95.43
2023-10-10T01:00:03.770Z,95.53
2023-10-10T01:00:34.390Z,95.53
2023-10-10T01:01:05.056Z,95.43
2023-10-10T01:01:35.673Z,95.53
2023-10-10T01:02:06.573Z,95.84
2023-10-10T01:02:36.669Z,95.64
2023-10-10T01:03:07.563Z,95.64
2023-10-10T01:03:37.689Z,95.53
2023-10-10T01:04:08.457Z,95.53
2023-10-10T01:04:39.049Z,95.53
2023-10-10T01:05:09.699Z,95.43
2023-10-10T01:05:40.295Z,95.43
2023-10-10T01:06:10.917Z,95.53
2023-10-10T01:06:41.548Z,95.64
2023-10-10T01:07:12.150Z,95.64
2023-10-10T01:07:42.772Z,95.64
2023-10-10T01:08:13.413Z,95.64
2023-10-10T01:08:43.991Z,95.64
2023-10-10T01:09:14.867Z,95.74
2023-10-10T01:09:45.546Z,95.74
2023-10-10T01:10:16.167Z,95.64
2023-10-10T01:10:46.783Z,95.53
2023-10-10T01:11:17.428Z,95.53
2023-10-10T01:11:48.037Z,95.53
2023-10-10T01:12:18.661Z,95.43
2023-10-10T01:12:49.272Z,95.43
2023-10-10T01:13:19.895Z,95.43
2023-10-10T01:13:50.513Z,95.48
2023-10-10T01:14:21.168Z,95.58
2023-10-10T01:14:51.753Z,95.58
2023-10-10T01:15:22.376Z,95.68
2023-10-10T01:15:52.981Z,95.78
2023-10-10T01:16:23.632Z,95.89
2023-10-10T01:16:54.315Z,95.89
2023-10-10T01:17:25.068Z,95.78
2023-10-10T01:17:55.853Z,95.68
2023-10-10T01:18:26.573Z,95.78
2023-10-10T01:18:57.174Z,95.78
2023-10-10T01:19:27.796Z,95.89
2023-10-10T01:19:58.461Z,96.09
2023-10-10T01:20:29.148Z,96.09
2023-10-10T01:20:59.735Z,95.98
2023-10-10T01:21:30.354Z,95.89
2023-10-10T01:22:00.961Z,95.68
2023-10-10T01:22:31.574Z,95.68
2023-10-10T01:23:02.227Z,95.68
2023-10-10T01:23:32.847Z,95.78
2023-10-10T01:24:03.508Z,95.89
2023-10-10T01:24:34.158Z,95.89
2023-10-10T01:25:04.740Z,95.98
2023-10-10T01:25:35.400Z,95.98
2023-10-10T01:26:06.080Z,95.98
2023-10-10T01:26:36.659Z,95.98
2023-10-10T01:27:07.276Z,95.89
2023-10-10T01:27:37.935Z,95.89
2023-10-10T01:28:08.538Z,95.89
2023-10-10T01:28:39.292Z,95.78
2023-10-10T01:29:09.965Z,95.68
2023-10-10T01:29:40.590Z,95.58
2023-10-10T01:30:11.178Z,95.58
2023-10-10T01:30:41.851Z,95.58
2023-10-10T01:31:12.574Z,95.68
2023-10-10T01:31:43.194Z,95.68
2023-10-10T01:32:13.861Z,95.78
2023-10-10T01:32:44.472Z,95.89
2023-10-10T01:33:15.097Z,95.98
2023-10-10T01:33:45.709Z,96.19
2023-10-10T01:34:16.365Z,96.19
2023-10-10T01:34:46.976Z,95.98
2023-10-10T01:35:17.857Z,95.98
2023-10-10T01:35:48.501Z,96.09
2023-10-10T01:36:19.154Z,96.19
2023-10-10T01:36:49.847Z,96.30
2023-10-10T01:37:20.544Z,96.50
2023-10-10T01:37:51.177Z,96.50
2023-10-10T01:38:21.892Z,96.70
2023-10-10T01:38:52.502Z,96.60
2023-10-10T01:39:23.162Z,96.50
2023-10-10T01:39:53.747Z,96.30
2023-10-10T01:40:24.380Z,96.30
2023-10-10T01:40:54.992Z,96.30
2023-10-10T01:41:25.760Z,96.30
2023-10-10T01:41:56.401Z,96.09
2023-10-10T01:42:27.013Z,96.19
2023-10-10T01:42:57.624Z,96.30
2023-10-10T01:43:28.278Z,96.30
2023-10-10T01:43:59.008Z,96.30
2023-10-10T01:44:29.695Z,95.98
2023-10-10T01:45:00.494Z,95.98
2023-10-10T01:45:31.196Z,96.09
2023-10-10T01:46:01.817Z,96.19
2023-10-10T01:46:32.460Z,96.09
2023-10-10T01:47:03.125Z,96.39
2023-10-10T01:47:33.824Z,96.50
2023-10-10T01:48:04.503Z,96.30
2023-10-10T01:48:35.108Z,96.19
2023-10-10T01:49:05.743Z,96.30
2023-10-10T01:49:36.359Z,96.30
2023-10-10T01:50:06.752Z,96.30
2023-10-10T01:50:37.336Z,96.09
2023-10-10T01:51:07.934Z,95.98
2023-10-10T01:51:38.580Z,96.39
2023-10-10T01:52:09.200Z,96.60
2023-10-10T01:52:39.832Z,96.60
2023-10-10T01:53:10.434Z,96.50
2023-10-10T01:53:41.055Z,96.30
2023-10-10T01:54:11.665Z,96.19
2023-10-10T01:54:42.531Z,96.19
2023-10-10T01:55:13.158Z,96.19
2023-10-10T01:55:43.802Z,96.34
2023-10-10T01:56:14.423Z,96.19
2023-10-10T01:56:45.034Z,96.19
2023-10-10T01:57:15.684Z,96.30
2023-10-10T01:57:46.291Z,96.30
2023-10-10T01:58:16.890Z,96.30
2023-10-10T01:58:47.540Z,96.39
2023-10-10T01:59:18.405Z,96.39
2023-10-10T01:59:48.575Z,96.50
2023-10-10T02:00:19.221Z,96.50
2023-10-10T02:00:49.802Z,96.39
2023-10-10T02:01:20.515Z,96.39
2023-10-10T02:01:51.194Z,96.50
2023-10-10T02:02:21.877Z,96.50
2023-10-10T02:02:52.648Z,96.50
2023-10-10T02:03:23.433Z,96.30
2023-10-10T02:03:54.300Z,96.19
2023-10-10T02:04:24.320Z,96.09
2023-10-10T02:04:54.976Z,95.98
2023-10-10T02:05:25.570Z,96.09
2023-10-10T02:05:56.170Z,96.23
2023-10-10T02:06:26.832Z,96.19
2023-10-10T02:06:57.434Z,96.14
2023-10-10T02:07:28.041Z,96.14
2023-10-10T02:07:58.814Z,96.14
2023-10-10T02:08:29.466Z,96.23
2023-10-10T02:09:00.109Z,96.34
2023-10-10T02:09:30.717Z,96.44
2023-10-10T02:10:01.432Z,96.44
2023-10-10T02:10:32.037Z,96.34
2023-10-10T02:11:02.665Z,96.34
2023-10-10T02:11:33.284Z,96.34
2023-10-10T02:12:03.883Z,96.14
2023-10-10T02:12:34.497Z,96.14
2023-10-10T02:13:05.590Z,96.14
2023-10-10T02:13:35.506Z,96.14
2023-10-10T02:14:06.150Z,96.23
2023-10-10T02:14:36.758Z,96.34
2023-10-10T02:15:07.410Z,96.30
2023-10-10T02:15:37.993Z,96.19
2023-10-10T02:16:08.629Z,96.19
2023-10-10T02:16:39.246Z,96.19
2023-10-10T02:17:09.899Z,96.19
2023-10-10T02:17:40.648Z,96.19
2023-10-10T02:18:11.452Z,96.19
2023-10-10T02:18:42.117Z,96.19
2023-10-10T02:19:12.785Z,96.19
2023-10-10T02:19:43.073Z,96.19
2023-10-10T02:20:13.855Z,96.23
2023-10-10T02:20:44.504Z,96.23
2023-10-10T02:21:15.086Z,96.19
2023-10-10T02:21:45.730Z,96.14
2023-10-10T02:22:16.383Z,96.14
2023-10-10T02:22:46.943Z,96.14
2023-10-10T02:23:17.590Z,96.14
2023-10-10T02:23:48.184Z,96.03
2023-10-10T02:24:18.827Z,96.03
2023-10-10T02:24:49.439Z,96.03
2023-10-10T02:25:20.048Z,96.03
2023-10-10T02:25:50.672Z,95.93
2023-10-10T02:26:21.315Z,96.03
2023-10-10T02:26:51.909Z,96.03
2023-10-10T02:27:22.564Z,96.14
2023-10-10T02:27:53.165Z,96.14
2023-10-10T02:28:23.778Z,96.14
2023-10-10T02:28:54.436Z,96.23
2023-10-10T02:29:25.079Z,96.23
2023-10-10T02:29:55.744Z,96.23
2023-10-10T02:30:26.379Z,96.44
2023-10-10T02:30:57.056Z,96.54
2023-10-10T02:31:27.657Z,96.44
2023-10-10T02:31:58.290Z,96.44
2023-10-10T02:32:28.953Z,96.44
2023-10-10T02:32:59.635Z,96.64
2023-10-10T02:33:30.267Z,96.75
2023-10-10T02:34:00.886Z,96.75
2023-10-10T02:34:31.553Z,96.64
2023-10-10T02:35:02.200Z,96.64
2023-10-10T02:35:32.854Z,96.64
2023-10-10T02:36:03.432Z,96.64
2023-10-10T02:36:34.062Z,96.75
2023-10-10T02:37:04.690Z,96.75
2023-10-10T02:37:35.320Z,96.84
2023-10-10T02:38:05.953Z,96.95
2023-10-10T02:38:36.580Z,96.64
2023-10-10T02:39:07.174Z,96.54
2023-10-10T02:39:37.827Z,96.64
2023-10-10T02:40:08.450Z,96.75
2023-10-10T02:40:39.074Z,96.84
2023-10-10T02:41:09.742Z,96.84
2023-10-10T02:41:40.389Z,96.84
2023-10-10T02:42:11.048Z,96.64
2023-10-10T02:42:41.685Z,96.64
2023-10-10T02:43:12.292Z,96.54
2023-10-10T02:43:42.908Z,96.54
2023-10-10T02:44:13.528Z,96.84
2023-10-10T02:44:44.140Z,97.05
2023-10-10T02:45:14.784Z,97.16
2023-10-10T02:45:45.378Z,97.25
2023-10-10T02:46:16.048Z,97.16
2023-10-10T02:46:46.705Z,97.16
2023-10-10T02:47:17.346Z,97.25
2023-10-10T02:47:48.041Z,97.25
2023-10-10T02:48:18.737Z,97.25
2023-10-10T02:48:49.352Z,97.36
2023-10-10T02:49:19.964Z,97.25
2023-10-10T02:49:50.590Z,97.25
2023-10-10T02:50:21.257Z,97.25
2023-10-10T02:50:51.839Z,97.25
2023-10-10T02:51:22.480Z,97.25
2023-10-10T02:51:53.074Z,97.25
2023-10-10T02:52:23.829Z,97.25
2023-10-10T02:52:54.473Z,97.36
2023-10-10T02:53:25.138Z,97.25
2023-10-10T02:53:55.709Z,97.25
2023-10-10T02:54:26.372Z,97.16
2023-10-10T02:54:56.941Z,96.84
2023-10-10T02:55:27.587Z,96.64
2023-10-10T02:55:58.220Z,96.64
2023-10-10T02:56:28.862Z,96.64
2023-10-10T02:56:59.532Z,96.64
2023-10-10T02:57:30.120Z,96.44
2023-10-10T02:58:00.774Z,96.23
2023-10-10T02:58:31.379Z,96.14
2023-10-10T02:59:02.011Z,96.03
2023-10-10T02:59:32.682Z,96.03
2023-10-10T03:00:03.375Z,95.93
2023-10-10T03:00:34.027Z,95.93
2023-10-10T03:01:04.643Z,95.93
2023-10-10T03:01:35.308Z,95.93
2023-10-10T03:02:05.996Z,95.93
2023-10-10T03:02:36.707Z,95.93
2023-10-10T03:03:07.359Z,95.93
2023-10-10T03:03:38.113Z,96.14
2023-10-10T03:04:08.915Z,96.23
2023-10-10T03:04:39.544Z,96.23
2023-10-10T03:05:10.172Z,96.34
2023-10-10T03:05:41.294Z,96.34
2023-10-10T03:06:11.618Z,96.44
2023-10-10T03:06:42.283Z,96.34
2023-10-10T03:07:12.875Z,96.48
2023-10-10T03:07:43.513Z,96.48
2023-10-10T03:08:14.154Z,96.38
2023-10-10T03:08:44.806Z,96.48
2023-10-10T03:09:15.616Z,96.48
2023-10-10T03:09:46.324Z,96.48
2023-10-10T03:10:16.937Z,96.48
2023-10-10T03:10:47.564Z,96.48
2023-10-10T03:11:18.233Z,96.59
2023-10-10T03:11:48.827Z,96.48
2023-10-10T03:12:19.437Z,96.48
2023-10-10T03:12:50.052Z,96.38
2023-10-10T03:13:20.672Z,96.38
2023-10-10T03:13:51.269Z,96.28
2023-10-10T03:14:21.958Z,96.28
2023-10-10T03:15:00.176Z,96.38
2023-10-10T03:15:23.476Z,96.48
2023-10-10T03:15:54.180Z,96.59
2023-10-10T03:16:24.854Z,96.48
2023-10-10T03:17:04.819Z,96.59
2023-10-10T03:17:25.972Z,96.69
2023-10-10T03:17:56.723Z,96.69
2023-10-10T03:18:27.354Z,96.69
2023-10-10T03:18:57.974Z,96.69
2023-10-10T03:19:36.236Z,96.69
2023-10-10T03:19:59.542Z,96.69
2023-10-10T03:20:30.344Z,96.69
2023-10-10T03:21:01.047Z,96.69
2023-10-10T03:21:31.658Z,96.59
2023-10-10T03:22:02.601Z,96.48
2023-10-10T03:22:33.172Z,96.59
2023-10-10T03:23:03.844Z,96.59
2023-10-10T03:23:34.473Z,96.59
2023-10-10T03:24:05.069Z,96.59
2023-10-10T03:24:35.679Z,96.59
2023-10-10T03:25:06.335Z,96.79
2023-10-10T03:25:36.993Z,96.79
2023-10-10T03:26:07.700Z,96.69
2023-10-10T03:26:38.388Z,96.69
2023-10-10T03:27:08.966Z,96.59
2023-10-10T03:27:39.579Z,96.28
2023-10-10T03:28:10.203Z,96.08
2023-10-10T03:28:40.871Z,95.97
2023-10-10T03:29:11.504Z,96.08
2023-10-10T03:29:42.175Z,96.18
2023-10-10T03:30:12.756Z,96.53
2023-10-10T03:30:43.371Z,96.63
2023-10-10T03:31:14.045Z,96.63
2023-10-10T03:31:44.666Z,96.63
2023-10-10T03:32:15.345Z,96.53
2023-10-10T03:32:45.994Z,96.53
2023-10-10T03:33:16.697Z,96.53
2023-10-10T03:33:47.297Z,96.53
2023-10-10T03:34:17.911Z,96.53
2023-10-10T03:34:48.557Z,96.73
2023-10-10T03:35:22.174Z,96.73
2023-10-10T03:35:49.814Z,96.84
2023-10-10T03:36:20.426Z,96.84
2023-10-10T03:36:51.051Z,96.84
2023-10-10T03:37:21.667Z,96.73
2023-10-10T03:37:52.295Z,96.73
2023-10-10T03:38:22.937Z,96.53
2023-10-10T03:38:53.619Z,96.53
2023-10-10T03:39:24.190Z,96.43
2023-10-10T03:39:54.840Z,96.53
2023-10-10T03:40:25.438Z,96.53
2023-10-10T03:40:56.064Z,96.53
2023-10-10T03:41:26.718Z,96.53
2023-10-10T03:41:57.302Z,96.53
2023-10-10T03:42:27.910Z,96.53
2023-10-10T03:42:58.529Z,96.43
2023-10-10T03:43:29.151Z,96.43
2023-10-10T03:44:00.248Z,96.53
2023-10-10T03:44:30.236Z,96.53
2023-10-10T03:45:00.865Z,96.53
2023-10-10T03:45:31.475Z,96.53
2023-10-10T03:46:02.189Z,96.43
2023-10-10T03:46:32.856Z,96.43
2023-10-10T03:47:03.552Z,96.43
2023-10-10T03:47:34.346Z,96.33
2023-10-10T03:48:05.016Z,96.33
2023-10-10T03:48:35.629Z,96.22
2023-10-10T03:49:06.232Z,96.02
2023-10-10T03:49:36.874Z,95.92
2023-10-10T03:50:07.568Z,96.02
2023-10-10T03:50:38.232Z,96.02
2023-10-10T03:51:08.827Z,96.02
2023-10-10T03:51:39.439Z,95.92
2023-10-10T03:52:10.057Z,96.02
2023-10-10T03:52:40.687Z,96.22
2023-10-10T03:53:11.340Z,96.33
2023-10-10T03:53:42.003Z,96.53
2023-10-10T03:54:12.614Z,96.63
2023-10-10T03:54:43.215Z,96.73
2023-10-10T03:55:13.867Z,96.84
2023-10-10T03:55:44.503Z,96.63
2023-10-10T03:56:15.316Z,96.63
2023-10-10T03:56:45.930Z,96.73
2023-10-10T03:57:16.568Z,96.73
2023-10-10T03:57:47.191Z,96.73
2023-10-10T03:58:17.814Z,96.63
2023-10-10T03:58:48.434Z,96.53
2023-10-10T03:59:19.304Z,96.43
2023-10-10T03:59:49.342Z,96.22
2023-10-10T04:00:20.175Z,96.12
2023-10-10T04:00:50.822Z,96.02
2023-10-10T04:01:21.478Z,96.22
2023-10-10T04:01:52.115Z,96.33
2023-10-10T04:02:22.738Z,96.43
2023-10-10T04:02:53.435Z,96.53
2023-10-10T04:03:24.226Z,96.53
2023-10-10T04:03:54.986Z,96.43
2023-10-10T04:04:25.624Z,96.43
2023-10-10T04:04:56.235Z,96.43
2023-10-10T04:05:28.178Z,96.58
2023-10-10T04:05:57.636Z,96.68
2023-10-10T04:06:28.303Z,96.68
2023-10-10T04:06:58.892Z,96.78
2023-10-10T04:07:29.512Z,96.88
2023-10-10T04:08:00.181Z,96.98
2023-10-10T04:08:38.566Z,96.98
2023-10-10T04:09:01.222Z,97.08
2023-10-10T04:09:31.951Z,97.08
2023-10-10T04:10:14.948Z,97.19
2023-10-10T04:10:35.333Z,97.08
2023-10-10T04:12:37.428Z,97.19
2023-10-10T04:13:01.716Z,97.19
2023-10-10T04:13:30.478Z,97.29
2023-10-10T04:14:01.125Z,97.39
2023-10-10T04:14:31.773Z,97.39
2023-10-10T04:15:02.421Z,97.39
2023-10-10T04:15:33.155Z,97.39
2023-10-10T04:16:03.805Z,97.29
2023-10-10T04:16:34.487Z,97.19
2023-10-10T04:17:05.195Z,97.29
2023-10-10T04:17:35.865Z,97.29
2023-10-10T04:18:06.480Z,97.29
2023-10-10T04:18:37.176Z,97.29
2023-10-10T04:19:07.796Z,97.39
2023-10-10T04:19:38.415Z,97.39
2023-10-10T04:20:09.041Z,97.39
2023-10-10T04:20:39.673Z,97.49
2023-10-10T04:21:10.286Z,97.39
2023-10-10T04:21:40.897Z,97.49
2023-10-10T04:22:11.521Z,97.49
2023-10-10T04:22:42.121Z,97.49
2023-10-10T04:23:12.854Z,97.19
2023-10-10T04:23:43.505Z,97.19
2023-10-10T04:24:14.414Z,97.29
2023-10-10T04:24:44.443Z,97.29
2023-10-10T04:25:15.058Z,97.29
2023-10-10T04:25:45.712Z,97.29
2023-10-10T04:26:16.323Z,97.29
2023-10-10T04:26:46.944Z,97.29
2023-10-10T04:27:17.557Z,97.08
2023-10-10T04:27:48.136Z,97.08
2023-10-10T04:28:18.770Z,97.08
2023-10-10T04:28:49.415Z,97.19
2023-10-10T04:29:20.084Z,97.19
2023-10-10T04:29:50.689Z,97.19
2023-10-10T04:30:21.340Z,97.29
2023-10-10T04:30:51.946Z,97.19
2023-10-10T04:31:22.679Z,97.08
2023-10-10T04:31:53.301Z,96.98
2023-10-10T04:32:24.008Z,96.98
2023-10-10T04:32:54.706Z,97.08
2023-10-10T04:33:25.384Z,97.19
2023-10-10T04:33:55.978Z,97.29
2023-10-10T04:34:37.554Z,97.49
2023-10-10T04:34:58.314Z,97.49
2023-10-10T04:35:27.656Z,97.49
2023-10-10T04:35:58.579Z,97.39
2023-10-10T04:36:29.252Z,97.29
2023-10-10T04:36:59.855Z,97.19
2023-10-10T04:37:31.503Z,97.19
2023-10-10T04:38:01.359Z,97.29
2023-10-10T04:38:42.746Z,97.29
2023-10-10T04:39:02.511Z,97.08
2023-10-10T04:39:43.110Z,96.98
2023-10-10T04:40:03.565Z,96.98
2023-10-10T04:40:34.248Z,96.98
2023-10-10T04:41:04.894Z,96.78
2023-10-10T04:41:35.692Z,96.68
2023-10-10T04:42:06.336Z,96.68
2023-10-10T04:42:45.795Z,96.68
2023-10-10T04:43:07.656Z,96.78
2023-10-10T04:43:38.403Z,96.78
2023-10-10T04:44:09.180Z,96.88
2023-10-10T04:44:39.889Z,96.98
2023-10-10T04:45:10.515Z,96.88
2023-10-10T04:45:41.158Z,97.19
2023-10-10T04:46:11.831Z,97.49
2023-10-10T04:46:42.520Z,97.60
2023-10-10T04:47:13.207Z,97.60
2023-10-10T04:47:43.883Z,97.60
2023-10-10T04:48:14.544Z,97.70
2023-10-10T04:48:45.152Z,97.80
2023-10-10T04:50:41.549Z,97.60
2023-10-10T04:51:12.379Z,97.70
2023-10-10T04:51:52.674Z,97.60
2023-10-10T04:52:13.785Z,97.70
2023-10-10T04:52:53.159Z,97.60
2023-10-10T04:53:15.022Z,97.60
2023-10-10T04:53:53.380Z,97.70
2023-10-10T04:54:16.932Z,97.70
2023-10-10T04:54:55.593Z,97.60
2023-10-10T04:55:17.409Z,97.49
2023-10-10T04:55:48.080Z,97.49
2023-10-10T04:56:18.887Z,97.49
2023-10-10T04:56:49.568Z,97.49
2023-10-10T04:57:20.195Z,97.49
2023-10-10T04:59:16.861Z,97.70
2023-10-10T04:59:56.120Z,97.60
2023-10-10T05:00:17.936Z,97.49
2023-10-10T05:00:48.687Z,97.70
2023-10-10T05:01:19.309Z,97.80
2023-10-10T05:01:50.147Z,97.90
2023-10-10T05:02:21.101Z,97.90
2023-10-10T05:02:51.782Z,98.00
2023-10-10T05:03:22.516Z,98.11
2023-10-10T05:04:03.179Z,98.11
2023-10-10T05:04:24.352Z,98.00
2023-10-10T05:04:55.051Z,97.90
2023-10-10T05:05:25.890Z,97.90
2023-10-10T05:06:05.319Z,97.80
2023-10-10T05:06:27.168Z,97.80
2023-10-10T05:06:57.880Z,97.70
2023-10-10T05:07:29.626Z,97.49
2023-10-10T05:07:58.949Z,97.39
2023-10-10T05:08:29.824Z,97.39
2023-10-10T05:09:00.526Z,97.49
2023-10-10T05:09:31.154Z,97.60
2023-10-10T05:10:01.822Z,97.70
2023-10-10T05:10:32.427Z,97.70
2023-10-10T05:11:03.055Z,97.70
2023-10-10T05:11:42.375Z,97.60
2023-10-10T05:12:04.221Z,97.60
2023-10-10T05:12:34.914Z,97.39
2023-10-10T05:13:05.589Z,97.39
2023-10-10T05:13:36.320Z,97.39
2023-10-10T05:14:07.160Z,97.39
2023-10-10T05:14:37.868Z,97.39
2023-10-10T05:15:08.475Z,97.39
2023-10-10T05:15:39.127Z,97.29
2023-10-10T05:17:35.882Z,97.08
2023-10-10T05:18:06.609Z,97.19
2023-10-10T05:18:37.447Z,97.29
2023-10-10T05:19:08.102Z,97.29
2023-10-10T05:19:38.744Z,97.29
2023-10-10T05:20:09.378Z,97.19
2023-10-10T05:20:40.018Z,97.08
2023-10-10T05:21:10.395Z,97.29
2023-10-10T05:21:40.795Z,97.29
2023-10-10T05:22:11.206Z,97.19
2023-10-10T05:22:41.606Z,97.08
2023-10-10T05:23:21.713Z,96.88
2023-10-10T05:23:42.678Z,96.78
2023-10-10T05:24:13.263Z,96.88
2023-10-10T05:24:43.895Z,96.88
2023-10-10T05:25:23.099Z,97.19
2023-10-10T05:25:45.660Z,97.29
2023-10-10T05:26:26.595Z,97.39
2023-10-10T05:28:12.172Z,97.60
2023-10-10T05:28:42.206Z,97.80
2023-10-10T05:29:22.247Z,97.90
2023-10-10T05:29:43.154Z,97.90
2023-10-10T05:30:13.613Z,97.80
2023-10-10T05:30:44.263Z,97.70
2023-10-10T05:31:14.830Z,97.70
2023-10-10T05:31:45.333Z,97.80
2023-10-10T05:32:15.739Z,98.11
2023-10-10T05:32:46.177Z,98.11
2023-10-10T05:34:42.530Z,98.41
2023-10-10T05:35:13.148Z,98.52
2023-10-10T05:35:53.295Z,98.61
2023-10-10T05:36:14.190Z,98.61
2023-10-10T05:36:44.645Z,98.61
2023-10-10T05:37:15.066Z,98.52
2023-10-10T05:37:45.510Z,98.31
2023-10-10T05:38:15.960Z,98.31
2023-10-10T05:38:46.383Z,98.31
2023-10-10T05:39:16.785Z,98.21
2023-10-10T05:39:47.275Z,98.21
2023-10-10T05:40:17.662Z,98.41
2023-10-10T05:40:48.108Z,98.11
2023-10-10T05:41:18.555Z,98.11
2023-10-10T05:41:48.940Z,98.21
2023-10-10T05:42:19.331Z,98.31
2023-10-10T05:42:49.760Z,98.21
2023-10-10T05:43:20.192Z,98.41
2023-10-10T05:43:50.594Z,98.52
2023-10-10T05:44:21.049Z,98.41
2023-10-10T05:44:51.436Z,98.41
2023-10-10T05:45:21.837Z,98.41
2023-10-10T05:45:52.299Z,98.52
2023-10-10T05:46:22.772Z,98.61
2023-10-10T05:46:53.206Z,98.61
2023-10-10T05:47:23.729Z,98.72
2023-10-10T05:47:54.197Z,98.68
2023-10-10T05:48:24.696Z,98.72
2023-10-10T05:48:55.172Z,98.68
2023-10-10T05:49:25.622Z,98.68
2023-10-10T05:49:56.055Z,98.57
2023-10-10T05:50:26.449Z,98.68
2023-10-10T05:50:56.908Z,98.68
2023-10-10T05:51:27.376Z,98.57
2023-10-10T05:51:57.828Z,98.57
2023-10-10T05:52:28.281Z,98.57
2023-10-10T05:52:58.855Z,98.57
2023-10-10T05:53:29.296Z,98.57
2023-10-10T05:53:59.765Z,98.57
2023-10-10T05:54:30.245Z,98.68
2023-10-10T05:55:00.663Z,98.68
2023-10-10T05:55:40.374Z,98.57
2023-10-10T05:56:02.173Z,98.57
2023-10-10T05:56:32.908Z,98.57
2023-10-10T05:57:03.457Z,98.47
2023-10-10T05:57:34.037Z,98.57
2023-10-10T05:58:04.540Z,98.57
2023-10-10T05:58:34.944Z,98.47
2023-10-10T05:59:05.403Z,98.47
2023-10-10T05:59:45.593Z,98.47
2023-10-10T06:00:06.610Z,98.27
2023-10-10T06:00:37.101Z,98.36
2023-10-10T06:01:07.559Z,98.57
2023-10-10T06:01:38.199Z,98.43
2023-10-10T06:02:08.698Z,98.32
2023-10-10T06:02:39.311Z,98.22
2023-10-10T06:03:09.837Z,98.22
2023-10-10T06:03:50.991Z,98.11
2023-10-10T06:04:10.712Z,98.11
2023-10-10T06:04:41.306Z,98.11
2023-10-10T06:05:11.839Z,98.11
2023-10-10T06:05:42.408Z,98.02
2023-10-10T06:06:12.897Z,97.91
2023-10-10T06:06:43.338Z,97.81
2023-10-10T06:07:13.847Z,97.91
2023-10-10T06:07:44.327Z,97.81
2023-10-10T06:08:14.771Z,97.81
2023-10-10T06:08:53.998Z,97.71
2023-10-10T06:09:15.727Z,97.81
2023-10-10T06:09:46.274Z,97.81
2023-10-10T06:10:16.796Z,97.81
2023-10-10T06:10:47.291Z,97.81
2023-10-10T06:11:17.926Z,97.61
2023-10-10T06:11:48.449Z,97.61
2023-10-10T06:12:18.894Z,97.71
2023-10-10T06:12:49.374Z,97.61
2023-10-10T06:13:19.816Z,97.71
2023-10-10T06:13:50.257Z,97.61
2023-10-10T06:14:20.743Z,97.61
2023-10-10T06:14:51.149Z,97.61
2023-10-10T06:15:21.581Z,97.71
2023-10-10T06:15:52.226Z,97.71
2023-10-10T06:16:22.749Z,97.56
2023-10-10T06:16:53.226Z,97.50
2023-10-10T06:17:23.689Z,97.40
2023-10-10T06:17:54.192Z,97.25
2023-10-10T06:18:24.754Z,97.25
2023-10-10T06:18:55.225Z,97.25
2023-10-10T06:19:25.739Z,97.25
2023-10-10T06:19:56.133Z,97.25
2023-10-10T06:20:26.623Z,97.16
2023-10-10T06:21:09.285Z,97.25
2023-10-10T06:21:28.609Z,97.16
2023-10-10T06:21:58.365Z,97.05
2023-10-10T06:22:28.809Z,96.95
2023-10-10T06:22:59.333Z,96.95
2023-10-10T06:23:29.804Z,96.95
2023-10-10T06:24:00.390Z,96.95
2023-10-10T06:24:30.788Z,96.75
2023-10-10T06:25:01.231Z,96.64
2023-10-10T06:25:31.683Z,96.75
2023-10-10T06:26:02.152Z,96.84
2023-10-10T06:26:32.620Z,96.75
2023-10-10T06:27:03.030Z,96.75
2023-10-10T06:27:33.481Z,96.64
2023-10-10T06:28:03.944Z,96.64
2023-10-10T06:28:34.377Z,96.75
2023-10-10T06:29:04.886Z,96.75
2023-10-10T06:29:35.306Z,96.75
2023-10-10T06:30:05.772Z,96.54
2023-10-10T06:30:36.283Z,96.44
2023-10-10T06:31:06.778Z,96.44
2023-10-10T06:31:37.291Z,96.54
2023-10-10T06:32:07.747Z,96.44
2023-10-10T06:32:38.257Z,96.54
2023-10-10T06:33:08.758Z,96.54
2023-10-10T06:33:39.276Z,96.75
2023-10-10T06:35:35.721Z,96.64
2023-10-10T06:36:13.860Z,96.84
2023-10-10T06:36:45.423Z,96.95
2023-10-10T06:37:07.095Z,96.75
2023-10-10T06:37:46.523Z,96.64
2023-10-10T06:38:08.166Z,96.60
2023-10-10T06:38:47.275Z,96.70
2023-10-10T06:39:08.894Z,96.70
2023-10-10T06:39:48.001Z,96.84
2023-10-10T06:40:09.624Z,96.91
2023-10-10T06:40:49.793Z,97.00
2023-10-10T06:41:10.728Z,97.00
2023-10-10T06:41:41.338Z,96.91
2023-10-10T06:43:37.236Z,96.19
2023-10-10T06:44:07.857Z,96.30
2023-10-10T06:44:38.304Z,96.30
2023-10-10T06:45:08.741Z,96.50
2023-10-10T06:45:39.368Z,96.50
2023-10-10T06:46:09.867Z,96.39
2023-10-10T06:46:40.305Z,96.35
2023-10-10T06:47:21.612Z,96.35
2023-10-10T06:47:41.420Z,96.45
2023-10-10T06:48:12.067Z,96.55